createdAt,value
2019-01-31T00:00:31.175Z,0
2019-01-31T00:01:39.326Z,0
2019-01-31T00:02:47.286Z,0
2019-01-31T00:03:55.343Z,0
2019-01-31T00:05:03.830Z,0
2019-01-31T00:06:11.503Z,0
2019-01-31T00:07:19.468Z,0
2019-01-31T00:08:27.558Z,0
2019-01-31T00:09:35.818Z,0
2019-01-31T00:20:39.063Z,0
2019-01-31T00:21:47.079Z,0
2019-01-31T00:22:55.156Z,0
2019-01-31T00:24:03.178Z,0
2019-01-31T00:25:11.236Z,0
2019-01-31T00:26:19.294Z,0
2019-01-31T00:27:27.355Z,0
2019-01-31T00:28:35.399Z,0
2019-01-31T00:29:43.442Z,0
2019-01-31T00:30:51.550Z,0
2019-01-31T00:31:59.559Z,0
2019-01-31T00:33:07.597Z,0
2019-01-31T00:34:15.651Z,0
2019-01-31T00:35:23.710Z,0
2019-01-31T00:36:31.778Z,0
2019-01-31T00:37:39.806Z,0
2019-01-31T00:38:56.466Z,0
2019-01-31T00:39:56.128Z,0
2019-01-31T00:41:04.181Z,0
2019-01-31T00:42:12.421Z,0
2019-01-31T00:43:20.474Z,0
2019-01-31T00:44:28.520Z,0
2019-01-31T00:45:36.575Z,0
2019-01-31T00:46:44.608Z,0
2019-01-31T00:47:52.677Z,0
2019-01-31T00:49:00.726Z,0
2019-01-31T00:50:08.785Z,0
2019-01-31T00:51:16.840Z,0
2019-01-31T00:52:24.880Z,0
2019-01-31T00:53:32.930Z,0
2019-01-31T00:54:40.986Z,0
2019-01-31T00:55:49.037Z,0
2019-01-31T00:56:57.090Z,0
2019-01-31T00:58:05.141Z,0
2019-01-31T00:59:13.199Z,0
2019-01-31T01:00:21.256Z,0
2019-01-31T01:01:29.300Z,0
2019-01-31T01:03:10.085Z,0
2019-01-31T01:04:18.156Z,0
2019-01-31T01:05:26.407Z,0
2019-01-31T01:06:35.063Z,0
2019-01-31T01:08:51.156Z,0
2019-01-31T01:09:59.206Z,0
2019-01-31T01:11:07.252Z,0
2019-01-31T01:12:15.346Z,0
2019-01-31T01:13:24.531Z,0
2019-01-31T01:14:32.614Z,0
2019-01-31T01:15:40.680Z,0
2019-01-31T01:16:48.720Z,0
2019-01-31T01:17:56.775Z,0
2019-01-31T01:19:05.022Z,0
2019-01-31T01:20:14.448Z,0
2019-01-31T01:21:22.544Z,0
2019-01-31T01:22:35.610Z,0
2019-01-31T01:23:45.673Z,0
2019-01-31T01:25:31.031Z,0
2019-01-31T01:28:01.121Z,0
2019-01-31T01:29:09.177Z,0
2019-01-31T01:30:17.213Z,0
2019-01-31T01:31:30.522Z,0
2019-01-31T01:34:24.484Z,0
2019-01-31T01:35:32.560Z,0
2019-01-31T01:36:40.655Z,0
2019-01-31T01:37:48.653Z,0
2019-01-31T01:38:56.712Z,0
2019-01-31T01:40:04.959Z,0
2019-01-31T01:41:13.013Z,0
2019-01-31T01:42:21.060Z,0
2019-01-31T01:43:29.131Z,0
2019-01-31T01:44:37.164Z,0
2019-01-31T01:45:45.233Z,0
2019-01-31T01:46:53.296Z,0
2019-01-31T01:48:01.334Z,0
2019-01-31T01:49:09.368Z,0
2019-01-31T01:50:18.847Z,0
2019-01-31T01:51:27.098Z,0
2019-01-31T01:52:35.142Z,0
2019-01-31T01:53:43.190Z,0
2019-01-31T01:54:51.450Z,0
2019-01-31T01:56:02.138Z,0
2019-01-31T01:58:55.293Z,0
2019-01-31T02:00:03.340Z,0
2019-01-31T02:01:11.390Z,0
2019-01-31T02:02:19.438Z,0
2019-01-31T02:03:27.494Z,0
2019-01-31T02:04:35.548Z,0
2019-01-31T02:05:43.596Z,0
2019-01-31T02:06:51.762Z,0
2019-01-31T02:07:59.697Z,0
2019-01-31T02:09:07.767Z,0
2019-01-31T02:10:15.804Z,0
2019-01-31T02:11:23.843Z,0
2019-01-31T02:12:31.911Z,0
2019-01-31T02:13:39.955Z,0
2019-01-31T02:14:48.009Z,0
2019-01-31T02:15:58.675Z,0
2019-01-31T02:17:07.352Z,0
2019-01-31T02:18:15.407Z,0
2019-01-31T02:19:23.455Z,0
2019-01-31T02:20:33.892Z,0
2019-01-31T02:21:41.962Z,0
2019-01-31T02:22:52.663Z,0
2019-01-31T02:24:00.688Z,0
2019-01-31T02:25:08.727Z,0
2019-01-31T02:26:19.401Z,0
2019-01-31T02:27:33.521Z,0
2019-01-31T02:28:42.769Z,0
2019-01-31T02:30:25.988Z,0
2019-01-31T02:31:34.013Z,0
2019-01-31T02:32:42.090Z,0
2019-01-31T02:33:50.142Z,0
2019-01-31T02:34:58.216Z,0
2019-01-31T02:36:06.232Z,0
2019-01-31T02:37:14.267Z,0
2019-01-31T02:38:22.349Z,0
2019-01-31T02:39:41.634Z,0
2019-01-31T02:40:38.453Z,0
2019-01-31T02:41:46.476Z,0
2019-01-31T02:42:54.520Z,0
2019-01-31T02:44:02.604Z,0
2019-01-31T02:45:10.640Z,0
2019-01-31T02:46:21.307Z,0
2019-01-31T02:47:32.378Z,0
2019-01-31T02:48:45.698Z,0
2019-01-31T02:50:01.254Z,0
2019-01-31T02:52:28.044Z,0
2019-01-31T02:53:39.719Z,0
2019-01-31T02:54:49.571Z,0
2019-01-31T02:56:02.489Z,0
2019-01-31T03:03:59.881Z,0
2019-01-31T03:05:07.938Z,0
2019-01-31T03:06:15.963Z,0
2019-01-31T03:07:24.085Z,0
2019-01-31T03:08:32.107Z,0
2019-01-31T03:09:40.125Z,0
2019-01-31T03:10:48.159Z,0
2019-01-31T03:11:56.217Z,0
2019-01-31T03:13:06.694Z,0
2019-01-31T03:14:37.837Z,0
2019-01-31T03:19:07.393Z,0
2019-01-31T03:20:17.164Z,0
2019-01-31T03:21:58.749Z,0
2019-01-31T03:26:12.259Z,0
2019-01-31T03:34:42.758Z,0
2019-01-31T03:35:50.762Z,0
2019-01-31T03:36:58.838Z,0
2019-01-31T03:38:06.856Z,0
2019-01-31T03:39:14.920Z,0
2019-01-31T03:40:22.959Z,0
2019-01-31T03:41:31.025Z,0
2019-01-31T03:42:39.071Z,0
2019-01-31T03:43:47.125Z,0
2019-01-31T03:44:55.204Z,0
2019-01-31T03:46:03.219Z,0
2019-01-31T03:47:11.270Z,0
2019-01-31T03:48:19.330Z,0
2019-01-31T03:49:27.382Z,0
2019-01-31T03:50:35.456Z,0
2019-01-31T03:51:43.472Z,0
2019-01-31T03:52:51.525Z,0
2019-01-31T03:53:59.580Z,0
2019-01-31T03:55:07.674Z,0
2019-01-31T03:56:15.849Z,0
2019-01-31T03:57:23.736Z,0
2019-01-31T03:58:31.789Z,0
2019-01-31T03:59:39.842Z,0
2019-01-31T04:00:47.893Z,0
2019-01-31T04:01:55.936Z,0
2019-01-31T04:03:03.956Z,0
2019-01-31T04:04:12.034Z,0
2019-01-31T04:05:20.116Z,0
2019-01-31T04:06:28.135Z,0
2019-01-31T04:07:36.194Z,0
2019-01-31T04:08:44.220Z,0
2019-01-31T04:09:52.301Z,0
2019-01-31T04:11:00.330Z,0
2019-01-31T04:12:08.405Z,0
2019-01-31T04:13:16.555Z,0
2019-01-31T04:14:27.248Z,0
2019-01-31T04:15:32.544Z,0
2019-01-31T04:16:40.596Z,0
2019-01-31T04:17:48.661Z,0
2019-01-31T04:18:56.704Z,0
2019-01-31T04:20:04.729Z,0
2019-01-31T04:21:12.795Z,0
2019-01-31T04:22:20.843Z,0
2019-01-31T04:23:28.885Z,0
2019-01-31T04:24:36.939Z,0
2019-01-31T04:25:44.999Z,0
2019-01-31T04:26:53.067Z,0
2019-01-31T04:28:01.109Z,0
2019-01-31T04:29:09.189Z,0
2019-01-31T04:30:17.235Z,0
2019-01-31T04:31:25.267Z,0
2019-01-31T04:32:33.308Z,0
2019-01-31T04:33:41.360Z,0
2019-01-31T04:34:49.413Z,0
2019-01-31T04:35:57.469Z,0
2019-01-31T04:37:05.524Z,0
2019-01-31T04:38:13.563Z,0
2019-01-31T04:39:21.627Z,0
2019-01-31T04:40:31.209Z,0
2019-01-31T04:41:37.716Z,0
2019-01-31T04:42:45.764Z,0
2019-01-31T04:43:53.894Z,0
2019-01-31T04:45:01.892Z,0
2019-01-31T04:46:09.917Z,0
2019-01-31T04:47:17.967Z,0
2019-01-31T04:48:26.026Z,0
2019-01-31T04:49:34.067Z,0
2019-01-31T04:50:42.132Z,0
2019-01-31T04:51:50.202Z,0
2019-01-31T04:52:58.371Z,0
2019-01-31T04:54:06.308Z,0
2019-01-31T04:55:14.315Z,0
2019-01-31T04:56:22.384Z,0
2019-01-31T04:57:30.436Z,0
2019-01-31T04:58:38.489Z,0
2019-01-31T04:59:46.547Z,0
2019-01-31T05:00:54.588Z,0
2019-01-31T05:02:02.687Z,0
2019-01-31T05:03:10.719Z,0
2019-01-31T05:04:18.757Z,0
2019-01-31T05:05:26.827Z,0
2019-01-31T05:06:34.856Z,0
2019-01-31T05:07:42.920Z,0
2019-01-31T05:08:50.955Z,0
2019-01-31T05:09:59.044Z,0
2019-01-31T05:11:07.065Z,0
2019-01-31T05:12:15.121Z,0
2019-01-31T05:13:23.167Z,0
2019-01-31T05:14:31.217Z,0
2019-01-31T05:15:39.275Z,0
2019-01-31T05:16:47.332Z,0
2019-01-31T05:17:55.392Z,0
2019-01-31T05:19:03.445Z,0
2019-01-31T05:20:11.495Z,0
2019-01-31T05:21:20.996Z,0
2019-01-31T05:22:27.620Z,0
2019-01-31T05:23:35.639Z,0
2019-01-31T05:24:43.689Z,0
2019-01-31T05:25:51.739Z,0
2019-01-31T05:26:59.805Z,0
2019-01-31T05:28:07.851Z,0
2019-01-31T05:29:15.895Z,0
2019-01-31T05:30:23.932Z,0
2019-01-31T05:31:32.008Z,0
2019-01-31T05:32:40.069Z,0
2019-01-31T05:33:48.792Z,0
2019-01-31T05:34:56.363Z,0
2019-01-31T05:36:04.224Z,0
2019-01-31T05:37:12.277Z,0
2019-01-31T05:38:20.328Z,0
2019-01-31T05:39:28.388Z,0
2019-01-31T05:40:36.435Z,0
2019-01-31T05:41:44.456Z,0
2019-01-31T05:42:52.536Z,0
2019-01-31T05:44:00.590Z,0
2019-01-31T05:45:08.644Z,0
2019-01-31T05:46:18.382Z,0
2019-01-31T05:47:24.713Z,0
2019-01-31T05:48:33.232Z,0
2019-01-31T05:49:41.141Z,0
2019-01-31T05:50:49.215Z,0
2019-01-31T05:51:57.043Z,0
2019-01-31T05:53:05.257Z,0
2019-01-31T05:54:13.150Z,0
2019-01-31T05:55:21.514Z,0
2019-01-31T05:56:29.224Z,0
2019-01-31T05:57:37.211Z,0
2019-01-31T05:58:45.285Z,0
2019-01-31T05:59:53.520Z,0
2019-01-31T06:01:01.379Z,0
2019-01-31T06:02:09.443Z,0
2019-01-31T06:03:17.495Z,0
2019-01-31T06:04:25.551Z,0
2019-01-31T06:05:33.594Z,0
2019-01-31T06:06:41.664Z,0
2019-01-31T06:07:49.707Z,0
2019-01-31T06:08:58.113Z,0
2019-01-31T06:10:05.800Z,0
2019-01-31T06:11:13.848Z,0
2019-01-31T06:12:21.914Z,0
2019-01-31T06:13:29.971Z,0
2019-01-31T06:14:38.016Z,0
2019-01-31T06:15:46.089Z,0
2019-01-31T06:16:54.113Z,0
2019-01-31T06:18:02.187Z,0
2019-01-31T06:19:10.229Z,0
2019-01-31T06:20:18.293Z,0
2019-01-31T06:21:26.337Z,0
2019-01-31T06:22:34.363Z,0
2019-01-31T06:23:42.455Z,0
2019-01-31T06:24:50.517Z,0
2019-01-31T06:25:58.706Z,0
2019-01-31T06:27:06.603Z,0
2019-01-31T06:28:14.635Z,0
2019-01-31T06:29:22.721Z,0
2019-01-31T06:30:30.757Z,0
2019-01-31T06:31:38.854Z,0
2019-01-31T06:32:46.862Z,0
2019-01-31T06:33:54.922Z,0
2019-01-31T06:35:02.978Z,0
2019-01-31T06:36:11.027Z,0
2019-01-31T06:37:19.078Z,0
2019-01-31T06:38:27.146Z,0
2019-01-31T06:39:35.189Z,0
2019-01-31T06:40:43.242Z,0
2019-01-31T06:41:51.302Z,0
2019-01-31T06:42:59.373Z,0
2019-01-31T06:44:07.437Z,0
2019-01-31T06:45:15.453Z,0
2019-01-31T06:46:23.517Z,0
2019-01-31T06:47:31.570Z,0
2019-01-31T06:48:39.616Z,0
2019-01-31T06:49:47.675Z,0
2019-01-31T06:50:55.828Z,0
2019-01-31T06:52:03.769Z,0
2019-01-31T06:53:11.836Z,0
2019-01-31T06:54:19.919Z,5
2019-01-31T06:55:27.947Z,5
2019-01-31T06:56:35.993Z,5
2019-01-31T06:57:44.010Z,5
2019-01-31T06:58:52.097Z,5
2019-01-31T07:00:00.190Z,5
2019-01-31T07:01:08.210Z,10
2019-01-31T07:02:16.257Z,10
2019-01-31T07:03:24.295Z,10
2019-01-31T07:04:32.405Z,10
2019-01-31T07:05:40.424Z,10
2019-01-31T07:06:48.464Z,10
2019-01-31T07:07:56.521Z,10
2019-01-31T07:09:04.566Z,15
2019-01-31T07:10:12.638Z,15
2019-01-31T07:11:29.552Z,15
2019-01-31T07:12:28.738Z,15
2019-01-31T07:13:36.789Z,15
2019-01-31T07:14:44.858Z,20
2019-01-31T07:15:52.903Z,20
2019-01-31T07:17:00.967Z,20
2019-01-31T07:18:09.009Z,20
2019-01-31T07:19:17.080Z,25
2019-01-31T07:20:25.114Z,25
2019-01-31T07:21:33.171Z,25
2019-01-31T07:22:41.225Z,30
2019-01-31T07:23:49.291Z,30
2019-01-31T07:24:57.318Z,35
2019-01-31T07:26:05.386Z,35
2019-01-31T07:27:13.428Z,40
2019-01-31T07:28:21.502Z,40
2019-01-31T07:29:29.529Z,45
2019-01-31T07:30:37.607Z,50
2019-01-31T07:31:45.650Z,50
2019-01-31T07:32:53.711Z,55
2019-01-31T07:34:01.771Z,60
2019-01-31T07:35:09.814Z,65
2019-01-31T07:36:17.868Z,70
2019-01-31T07:37:25.969Z,70
2019-01-31T07:38:33.947Z,75
2019-01-31T07:39:42.028Z,75
2019-01-31T07:40:50.090Z,75
2019-01-31T07:41:58.130Z,80
2019-01-31T07:43:06.186Z,80
2019-01-31T07:44:14.213Z,85
2019-01-31T07:45:22.301Z,95
2019-01-31T07:46:30.370Z,100
2019-01-31T07:47:38.443Z,105
2019-01-31T07:48:46.470Z,110
2019-01-31T07:49:54.499Z,110
2019-01-31T07:51:02.583Z,110
2019-01-31T07:52:10.626Z,110
2019-01-31T07:53:18.666Z,120
2019-01-31T07:54:26.724Z,125
2019-01-31T07:55:34.794Z,135
2019-01-31T07:56:42.836Z,140
2019-01-31T07:57:50.889Z,140
2019-01-31T07:58:58.940Z,140
2019-01-31T08:00:07.005Z,145
2019-01-31T08:01:15.057Z,145
2019-01-31T08:02:23.120Z,150
2019-01-31T08:03:31.167Z,145
2019-01-31T08:04:39.227Z,145
2019-01-31T08:05:47.285Z,135
2019-01-31T08:06:55.325Z,125
2019-01-31T08:08:03.397Z,130
2019-01-31T08:09:11.446Z,140
2019-01-31T08:10:19.526Z,145
2019-01-31T08:11:27.555Z,150
2019-01-31T08:12:35.620Z,155
2019-01-31T08:13:43.678Z,155
2019-01-31T08:14:51.716Z,150
2019-01-31T08:15:59.762Z,145
2019-01-31T08:17:07.831Z,140
2019-01-31T08:18:15.883Z,135
2019-01-31T08:19:23.929Z,140
2019-01-31T08:20:31.997Z,155
2019-01-31T08:21:41.082Z,175
2019-01-31T08:22:48.117Z,195
2019-01-31T08:23:56.273Z,210
2019-01-31T08:25:04.214Z,210
2019-01-31T08:26:12.276Z,210
2019-01-31T08:27:20.315Z,215
2019-01-31T08:28:28.393Z,210
2019-01-31T08:29:36.442Z,210
2019-01-31T08:30:44.500Z,205
2019-01-31T08:31:52.558Z,205
2019-01-31T08:33:00.607Z,200
2019-01-31T08:34:08.663Z,200
2019-01-31T08:35:16.708Z,205
2019-01-31T08:36:24.767Z,195
2019-01-31T08:37:32.820Z,180
2019-01-31T08:38:40.868Z,180
2019-01-31T08:39:48.924Z,175
2019-01-31T08:40:56.994Z,170
2019-01-31T08:42:05.063Z,160
2019-01-31T08:43:13.100Z,150
2019-01-31T08:44:21.167Z,145
2019-01-31T08:45:29.222Z,155
2019-01-31T08:46:37.271Z,165
2019-01-31T08:47:45.310Z,175
2019-01-31T08:48:53.382Z,175
2019-01-31T08:50:01.427Z,170
2019-01-31T08:51:09.480Z,165
2019-01-31T08:52:17.530Z,160
2019-01-31T08:53:25.599Z,160
2019-01-31T08:54:33.653Z,165
2019-01-31T08:55:41.715Z,180
2019-01-31T08:56:49.760Z,190
2019-01-31T08:57:57.806Z,185
2019-01-31T08:59:05.891Z,195
2019-01-31T09:00:13.921Z,195
2019-01-31T09:01:22.104Z,195
2019-01-31T09:02:30.037Z,205
2019-01-31T09:03:38.116Z,215
2019-01-31T09:04:46.169Z,230
2019-01-31T09:05:54.199Z,240
2019-01-31T09:07:02.270Z,255
2019-01-31T09:08:10.366Z,270
2019-01-31T09:09:18.385Z,275
2019-01-31T09:10:26.430Z,280
2019-01-31T09:11:34.466Z,280
2019-01-31T09:12:42.556Z,270
2019-01-31T09:13:50.603Z,250
2019-01-31T09:14:58.665Z,230
2019-01-31T09:16:06.718Z,200
2019-01-31T09:17:14.773Z,175
2019-01-31T09:18:22.857Z,155
2019-01-31T09:19:30.907Z,145
2019-01-31T09:20:38.942Z,150
2019-01-31T09:21:47.011Z,175
2019-01-31T09:22:55.058Z,190
2019-01-31T09:24:03.111Z,195
2019-01-31T09:25:11.167Z,185
2019-01-31T09:26:19.228Z,180
2019-01-31T09:27:27.278Z,175
2019-01-31T09:28:35.333Z,185
2019-01-31T09:29:43.407Z,210
2019-01-31T09:30:51.453Z,240
2019-01-31T09:31:59.505Z,260
2019-01-31T09:33:07.566Z,245
2019-01-31T09:34:15.603Z,225
2019-01-31T09:35:23.664Z,230
2019-01-31T09:36:31.721Z,265
2019-01-31T09:37:39.785Z,260
2019-01-31T09:38:47.844Z,260
2019-01-31T09:39:55.909Z,255
2019-01-31T09:41:03.925Z,235
2019-01-31T09:42:12.006Z,245
2019-01-31T09:43:20.083Z,250
2019-01-31T09:44:28.125Z,245
2019-01-31T09:45:36.179Z,260
2019-01-31T09:46:44.212Z,280
2019-01-31T09:47:52.282Z,280
2019-01-31T09:49:00.393Z,260
2019-01-31T09:50:08.453Z,275
2019-01-31T09:51:16.477Z,255
2019-01-31T09:52:24.499Z,245
2019-01-31T09:53:32.586Z,255
2019-01-31T09:54:40.643Z,245
2019-01-31T09:55:48.697Z,240
2019-01-31T09:56:56.750Z,250
2019-01-31T09:58:04.800Z,260
2019-01-31T09:59:12.887Z,280
2019-01-31T10:00:27.334Z,315
2019-01-31T10:01:29.029Z,370
2019-01-31T10:02:37.042Z,360
2019-01-31T10:03:45.085Z,365
2019-01-31T10:04:53.134Z,440
2019-01-31T10:06:01.201Z,425
2019-01-31T10:07:09.256Z,440
2019-01-31T10:08:17.314Z,440
2019-01-31T10:09:25.384Z,440
2019-01-31T10:10:33.423Z,515
2019-01-31T10:11:41.556Z,505
2019-01-31T10:12:49.627Z,550
2019-01-31T10:13:57.607Z,510
2019-01-31T10:15:05.819Z,375
2019-01-31T10:16:13.801Z,330
2019-01-31T10:17:21.794Z,315
2019-01-31T10:18:29.858Z,290
2019-01-31T10:19:37.926Z,300
2019-01-31T10:20:45.959Z,240
2019-01-31T10:21:55.477Z,215
2019-01-31T10:23:02.679Z,220
2019-01-31T10:24:10.246Z,220
2019-01-31T10:25:18.229Z,210
2019-01-31T10:26:26.250Z,210
2019-01-31T10:27:34.294Z,195
2019-01-31T10:28:42.378Z,215
2019-01-31T10:29:52.891Z,230
2019-01-31T10:30:58.485Z,240
2019-01-31T10:32:06.546Z,255
2019-01-31T10:33:14.586Z,270
2019-01-31T10:34:22.669Z,285
2019-01-31T10:35:30.725Z,295
2019-01-31T10:36:38.787Z,290
2019-01-31T10:37:46.830Z,285
2019-01-31T10:38:54.906Z,280
2019-01-31T10:40:02.954Z,310
2019-01-31T10:41:11.004Z,310
2019-01-31T10:42:19.069Z,270
2019-01-31T10:43:27.122Z,265
2019-01-31T10:44:35.177Z,260
2019-01-31T10:45:43.233Z,250
2019-01-31T10:46:51.294Z,245
2019-01-31T10:47:59.369Z,245
2019-01-31T10:49:07.427Z,250
2019-01-31T10:50:15.468Z,255
2019-01-31T10:51:23.530Z,275
2019-01-31T10:52:31.601Z,285
2019-01-31T10:53:39.646Z,290
2019-01-31T10:54:47.803Z,285
2019-01-31T10:55:55.771Z,295
2019-01-31T10:57:03.812Z,300
2019-01-31T10:58:11.882Z,320
2019-01-31T10:59:19.927Z,340
2019-01-31T11:00:27.995Z,350
2019-01-31T11:01:36.056Z,385
2019-01-31T11:02:44.080Z,420
2019-01-31T11:03:52.170Z,385
2019-01-31T11:05:00.229Z,365
2019-01-31T11:06:08.293Z,375
2019-01-31T11:07:16.346Z,380
2019-01-31T11:08:24.379Z,415
2019-01-31T11:09:32.466Z,405
2019-01-31T11:10:40.516Z,335
2019-01-31T11:11:48.575Z,295
2019-01-31T11:13:00.473Z,295
2019-01-31T11:14:04.676Z,300
2019-01-31T11:15:12.746Z,280
2019-01-31T11:16:20.810Z,265
2019-01-31T11:17:28.863Z,255
2019-01-31T11:18:36.912Z,270
2019-01-31T11:19:44.984Z,285
2019-01-31T11:20:53.028Z,305
2019-01-31T11:22:01.129Z,335
2019-01-31T11:23:09.155Z,345
2019-01-31T11:24:17.251Z,340
2019-01-31T11:25:25.257Z,370
2019-01-31T11:26:33.313Z,440
2019-01-31T11:27:41.390Z,480
2019-01-31T11:28:49.460Z,510
2019-01-31T11:29:57.510Z,530
2019-01-31T11:31:05.565Z,510
2019-01-31T11:32:13.622Z,440
2019-01-31T11:33:21.695Z,385
2019-01-31T11:34:32.841Z,345
2019-01-31T11:35:37.796Z,305
2019-01-31T11:36:45.851Z,335
2019-01-31T11:37:53.903Z,340
2019-01-31T11:39:01.978Z,325
2019-01-31T11:40:10.050Z,315
2019-01-31T11:41:18.105Z,300
2019-01-31T11:42:26.164Z,290
2019-01-31T11:43:34.185Z,280
2019-01-31T11:44:42.292Z,300
2019-01-31T11:45:50.340Z,325
2019-01-31T11:46:58.420Z,340
2019-01-31T11:48:06.467Z,345
2019-01-31T11:49:14.495Z,350
2019-01-31T11:50:22.586Z,310
2019-01-31T11:51:30.623Z,295
2019-01-31T11:52:38.705Z,305
2019-01-31T11:53:46.753Z,290
2019-01-31T11:54:55.234Z,310
2019-01-31T11:56:02.879Z,325
2019-01-31T11:57:10.926Z,340
2019-01-31T11:58:18.982Z,340
2019-01-31T11:59:27.055Z,350
2019-01-31T12:00:35.125Z,355
2019-01-31T12:01:43.161Z,395
2019-01-31T12:02:54.856Z,405
2019-01-31T12:03:59.296Z,445
2019-01-31T12:05:07.363Z,450
2019-01-31T12:06:15.406Z,410
2019-01-31T12:07:23.460Z,435
2019-01-31T12:08:31.520Z,445
2019-01-31T12:09:39.593Z,480
2019-01-31T12:10:47.635Z,470
2019-01-31T12:11:55.708Z,455
2019-01-31T12:13:03.750Z,465
2019-01-31T12:14:11.832Z,430
2019-01-31T12:15:19.891Z,435
2019-01-31T12:16:27.946Z,405
2019-01-31T12:17:36.012Z,360
2019-01-31T12:18:44.055Z,365
2019-01-31T12:19:52.121Z,345
2019-01-31T12:21:00.180Z,295
2019-01-31T12:22:08.248Z,300
2019-01-31T12:23:16.312Z,285
2019-01-31T12:24:24.351Z,270
2019-01-31T12:25:32.428Z,295
2019-01-31T12:26:40.489Z,300
2019-01-31T12:27:48.550Z,300
2019-01-31T12:28:56.603Z,285
2019-01-31T12:30:04.672Z,270
2019-01-31T12:31:12.783Z,260
2019-01-31T12:32:20.792Z,275
2019-01-31T12:33:30.823Z,285
2019-01-31T12:34:36.902Z,280
2019-01-31T12:35:44.981Z,280
2019-01-31T12:36:53.030Z,310
2019-01-31T12:38:01.078Z,335
2019-01-31T12:39:09.145Z,340
2019-01-31T12:40:17.219Z,305
2019-01-31T12:41:25.268Z,280
2019-01-31T12:42:33.346Z,305
2019-01-31T12:43:41.391Z,355
2019-01-31T12:44:49.437Z,355
2019-01-31T12:45:57.510Z,445
2019-01-31T12:47:05.578Z,290
2019-01-31T12:48:13.615Z,285
2019-01-31T12:49:21.689Z,320
2019-01-31T12:50:29.747Z,365
2019-01-31T12:51:37.790Z,400
2019-01-31T12:52:45.877Z,335
2019-01-31T12:53:53.896Z,275
2019-01-31T12:55:01.988Z,305
2019-01-31T12:56:10.150Z,345
2019-01-31T12:57:18.104Z,320
2019-01-31T12:58:33.242Z,355
2019-01-31T12:59:34.202Z,415
2019-01-31T13:00:42.282Z,340
2019-01-31T13:01:50.325Z,230
2019-01-31T13:02:58.392Z,175
2019-01-31T13:04:06.472Z,165
2019-01-31T13:05:14.493Z,235
2019-01-31T13:06:22.564Z,235
2019-01-31T13:07:30.628Z,190
2019-01-31T13:08:38.707Z,165
2019-01-31T13:09:46.750Z,205
2019-01-31T13:10:54.807Z,295
2019-01-31T13:12:02.877Z,275
2019-01-31T13:13:10.917Z,295
2019-01-31T13:14:18.994Z,245
2019-01-31T13:15:29.157Z,230
2019-01-31T13:16:35.099Z,280
2019-01-31T13:17:43.191Z,325
2019-01-31T13:18:51.223Z,375
2019-01-31T13:19:59.301Z,385
2019-01-31T13:21:07.339Z,405
2019-01-31T13:22:15.405Z,440
2019-01-31T13:23:23.467Z,370
2019-01-31T13:24:31.530Z,305
2019-01-31T13:25:39.596Z,250
2019-01-31T13:26:47.662Z,230
2019-01-31T13:27:55.701Z,290
2019-01-31T13:29:03.763Z,305
2019-01-31T13:30:11.830Z,320
2019-01-31T13:31:19.903Z,345
2019-01-31T13:32:27.947Z,310
2019-01-31T13:33:35.999Z,220
2019-01-31T13:34:44.036Z,180
2019-01-31T13:35:52.124Z,165
2019-01-31T13:37:00.188Z,155
2019-01-31T13:38:08.251Z,180
2019-01-31T13:39:16.311Z,180
2019-01-31T13:40:24.347Z,190
2019-01-31T13:41:32.432Z,245
2019-01-31T13:42:40.474Z,275
2019-01-31T13:43:57.225Z,235
2019-01-31T13:44:56.616Z,195
2019-01-31T13:46:04.627Z,175
2019-01-31T13:47:12.712Z,185
2019-01-31T13:48:20.816Z,260
2019-01-31T13:49:28.869Z,230
2019-01-31T13:50:36.896Z,180
2019-01-31T13:51:44.950Z,155
2019-01-31T13:52:53.004Z,150
2019-01-31T13:54:01.075Z,150
2019-01-31T13:55:09.127Z,150
2019-01-31T13:56:17.201Z,145
2019-01-31T13:57:25.237Z,140
2019-01-31T13:58:33.350Z,135
2019-01-31T13:59:41.355Z,140
2019-01-31T14:00:49.419Z,140
2019-01-31T14:01:57.485Z,135
2019-01-31T14:03:05.568Z,135
2019-01-31T14:04:13.591Z,145
2019-01-31T14:05:21.660Z,145
2019-01-31T14:06:29.713Z,145
2019-01-31T14:07:37.782Z,135
2019-01-31T14:08:45.842Z,120
2019-01-31T14:09:53.877Z,130
2019-01-31T14:11:02.001Z,135
2019-01-31T14:12:10.021Z,155
2019-01-31T14:13:18.072Z,175
2019-01-31T14:14:26.130Z,170
2019-01-31T14:15:34.284Z,155
2019-01-31T14:16:47.415Z,165
2019-01-31T14:17:50.304Z,160
2019-01-31T14:18:58.361Z,170
2019-01-31T14:20:06.427Z,160
2019-01-31T14:21:14.468Z,130
2019-01-31T14:22:22.530Z,115
2019-01-31T14:23:30.599Z,110
2019-01-31T14:24:38.662Z,100
2019-01-31T14:25:46.723Z,100
2019-01-31T14:26:54.744Z,100
2019-01-31T14:28:02.824Z,100
2019-01-31T14:29:10.875Z,100
2019-01-31T14:30:21.456Z,100
2019-01-31T14:31:27.005Z,100
2019-01-31T14:32:35.059Z,100
2019-01-31T14:33:43.110Z,100
2019-01-31T14:34:51.276Z,100
2019-01-31T14:35:59.238Z,100
2019-01-31T14:37:07.285Z,95
2019-01-31T14:38:15.347Z,95
2019-01-31T14:39:23.417Z,90
2019-01-31T14:40:31.469Z,90
2019-01-31T14:41:39.635Z,85
2019-01-31T14:42:47.572Z,85
2019-01-31T14:43:55.640Z,90
2019-01-31T14:45:03.693Z,90
2019-01-31T14:46:11.754Z,90
2019-01-31T14:47:19.808Z,90
2019-01-31T14:49:35.928Z,100
2019-01-31T14:50:43.949Z,100
2019-01-31T14:51:52.030Z,100
2019-01-31T14:53:00.108Z,100
2019-01-31T14:54:08.150Z,100
2019-01-31T14:55:16.210Z,100
2019-01-31T14:56:24.248Z,105
2019-01-31T14:57:32.330Z,105
2019-01-31T14:58:40.470Z,105
2019-01-31T14:59:48.437Z,105
2019-01-31T15:00:56.503Z,105
2019-01-31T15:02:04.525Z,105
2019-01-31T15:03:12.613Z,105
2019-01-31T15:04:20.669Z,100
2019-01-31T15:05:28.714Z,100
2019-01-31T15:06:36.783Z,100
2019-01-31T15:07:44.834Z,100
2019-01-31T15:08:52.885Z,105
2019-01-31T15:10:00.955Z,105
2019-01-31T15:11:09.129Z,105
2019-01-31T15:12:17.065Z,105
2019-01-31T15:13:25.149Z,110
2019-01-31T15:14:33.219Z,110
2019-01-31T15:15:41.245Z,115
2019-01-31T15:16:49.297Z,115
2019-01-31T15:17:57.335Z,115
2019-01-31T15:19:05.406Z,105
2019-01-31T15:20:13.470Z,100
2019-01-31T15:21:21.522Z,90
2019-01-31T15:22:29.575Z,85
2019-01-31T15:23:37.626Z,85
2019-01-31T15:24:45.689Z,80
2019-01-31T15:25:53.726Z,80
2019-01-31T15:27:01.795Z,75
2019-01-31T15:28:09.852Z,75
2019-01-31T15:29:17.925Z,75
2019-01-31T15:30:25.963Z,70
2019-01-31T15:31:33.995Z,70
2019-01-31T15:32:42.110Z,70
2019-01-31T15:33:50.133Z,70
2019-01-31T15:34:58.179Z,70
2019-01-31T15:36:06.245Z,70
2019-01-31T15:37:14.272Z,75
2019-01-31T15:38:22.363Z,75
2019-01-31T15:39:30.408Z,75
2019-01-31T15:40:38.480Z,75
2019-01-31T15:41:46.530Z,70
2019-01-31T15:42:54.550Z,70
2019-01-31T15:44:02.629Z,65
2019-01-31T15:45:10.701Z,65
2019-01-31T15:46:18.745Z,60
2019-01-31T15:47:26.817Z,60
2019-01-31T15:48:34.858Z,55
2019-01-31T15:49:42.912Z,50
2019-01-31T15:50:50.996Z,50
2019-01-31T15:51:59.029Z,45
2019-01-31T15:53:07.082Z,45
2019-01-31T15:54:15.154Z,40
2019-01-31T15:55:23.183Z,40
2019-01-31T15:56:31.254Z,40
2019-01-31T15:57:39.311Z,40
2019-01-31T15:58:47.375Z,35
2019-01-31T15:59:55.418Z,35
2019-01-31T16:01:03.472Z,30
2019-01-31T16:02:11.528Z,25
2019-01-31T16:03:19.590Z,25
2019-01-31T16:04:27.641Z,20
2019-01-31T16:05:35.711Z,15
2019-01-31T16:06:43.748Z,10
2019-01-31T16:07:51.813Z,15
2019-01-31T16:08:59.853Z,15
2019-01-31T16:10:07.954Z,10
2019-01-31T16:11:16.018Z,10
2019-01-31T16:12:24.002Z,10
2019-01-31T16:13:32.136Z,10
2019-01-31T16:14:40.182Z,10
2019-01-31T16:15:48.221Z,10
2019-01-31T16:16:56.258Z,5
2019-01-31T16:18:04.285Z,5
2019-01-31T16:19:12.368Z,5
2019-01-31T16:20:20.426Z,5
2019-01-31T16:21:28.471Z,0
2019-01-31T16:22:36.526Z,0
2019-01-31T16:23:44.559Z,0
2019-01-31T16:24:52.648Z,0
2019-01-31T16:26:00.709Z,0
2019-01-31T16:27:08.756Z,0
2019-01-31T16:28:16.818Z,0
2019-01-31T16:29:24.867Z,0
2019-01-31T16:30:32.916Z,0
2019-01-31T16:31:40.972Z,0
2019-01-31T16:32:49.052Z,0
2019-01-31T16:33:57.086Z,0
2019-01-31T16:35:05.159Z,0
2019-01-31T16:36:13.183Z,0
2019-01-31T16:37:21.254Z,0
2019-01-31T16:38:29.305Z,0
2019-01-31T16:39:37.376Z,0
2019-01-31T16:40:45.410Z,0
2019-01-31T16:41:53.505Z,0
2019-01-31T16:43:01.534Z,0
2019-01-31T16:44:09.590Z,0
2019-01-31T16:45:17.637Z,0
2019-01-31T16:46:25.707Z,0
2019-01-31T16:47:33.764Z,0
2019-01-31T16:48:41.799Z,0
2019-01-31T16:49:49.864Z,0
2019-01-31T16:50:57.919Z,0
2019-01-31T16:52:05.977Z,0